Time;durP1;ratioP1;P1;durP2;ratioP2;P2;SDS_P1;SDS_P2;PMS_P1;PMS_P2;Temp;Humidity;BMP_temperature;BMP_pressure;BME280_temperature;BME280_humidity;BME280_pressure;Samples;Min_cycle;Max_cycle;Signal;HPM_P1;HPM_P2
2023/04/09 00:01:13;;;;;;;;;;;;;;;;;;5059993;28;1216;-58
2023/04/09 00:03:39;;;;;;;;;;;;;;;;;;5050102;28;4568;-59
2023/04/09 00:06:04;;;;;;;;;;;;;;;;;;5051451;28;4467;-58
2023/04/09 00:08:29;;;;;;;;;;;;;;;;;;5055694;28;5106;-59
2023/04/09 00:10:55;;;;;;;;;;;;;;;;;;5049384;28;4982;-58
2023/04/09 00:13:21;;;;;;;;;;;;;;;;;;5054658;28;4844;-58
2023/04/09 00:15:46;;;;;;;;;;;;;;;;;;5061217;28;1326;-58
2023/04/09 00:18:12;;;;;;;;;;;;;;;;;;5062991;28;4562;-59
2023/04/09 00:20:37;;;;;;;;;;;;;;;;;;5050209;28;4472;-58
2023/04/09 00:23:02;;;;;;;;;;;;;;;;;;5052073;28;4652;-60
2023/04/09 00:25:27;;;;;;;;;;;;;;;;;;5049604;28;5056;-57
2023/04/09 00:27:53;;;;;;;;;;;;;;;;;;5053808;28;1141;-58
2023/04/09 00:30:18;;;;;;;;;;;;;;;;;;5051370;28;5126;-58
2023/04/09 00:32:44;;;;;;;;;;;;;;;;;;5053138;28;5016;-58
2023/04/09 00:35:09;;;;;;;;;;;;;;;;;;5051058;28;4504;-58
2023/04/09 00:37:35;;;;;;;;;;;;;;;;;;5056380;28;4423;-58
2023/04/09 00:40:00;;;;;;;;;;;;;;;;;;5060029;28;1126;-58
2023/04/09 00:42:26;;;;;;;;;;;;;;;;;;5059551;28;4985;-58
2023/04/09 00:44:51;;;;;;;;;;;;;;;;;;5057879;28;4936;-57
2023/04/09 00:47:16;;;;;;;;;;;;;;;;;;5053664;28;4493;-58
2023/04/09 00:49:43;;;;;;;;;;;;;;;;;;5055724;28;4629;-58
2023/04/09 00:52:08;;;;;;;;;;;;;;;;;;5053239;28;1090;-58
2023/04/09 00:54:33;;;;;;;;;;;;;;;;;;5052233;28;4997;-58
2023/04/09 00:56:59;;;;;;;;;;;;;;;;;;5055451;28;4949;-57
2023/04/09 00:59:25;;;;;;;;;;;;;;;;;;5057475;28;4530;-57
2023/04/09 01:01:50;;;;;;;;;;;;;;;;;;5053731;28;4520;-56
2023/04/09 01:04:15;;;;;;;;;;;;;;;;;;5058382;28;2469;-57
2023/04/09 01:07:13;;;;;;;;;;;;;;;;;;5052415;28;4639;-57
2023/04/09 01:09:42;;;;;;;;;;;;;;;;;;5024788;28;5023;-57
2023/04/09 01:12:23;;;;;;;;;;;;;;;;;;5050047;28;4471;-58
2023/04/09 01:14:50;;;;;;;;;;;;;;;;;;5056012;28;4495;-57
2023/04/09 01:17:17;;;;;;;;;;;;;;;;;;5081754;28;4509;-57
2023/04/09 01:19:43;;;;;;;;;;;;;;;;;;5077510;28;5025;-57
2023/04/09 01:22:12;;;;;;;;;;;;;;;;;;5052342;28;1159;-58
2023/04/09 01:24:41;;;;;;;;;;;;;;;;;;5085542;28;4797;-59
2023/04/09 01:27:06;;;;;;;;;;;;;;;;;;5056032;28;5024;-59
2023/04/09 01:29:38;;;;;;;;;;;;;;;;;;5076145;28;5016;-59
2023/04/09 01:32:03;;;;;;;;;;;;;;;;;;5050006;28;4998;-59
2023/04/09 01:34:29;;;;;;;;;;;;;;;;;;5079178;28;5079;-58
2023/04/09 01:36:55;;;;;;;;;;;;;;;;;;5052188;28;1245;-59
2023/04/09 01:39:21;;;;;;;;;;;;;;;;;;5086886;28;4466;-59
2023/04/09 01:41:46;;;;;;;;;;;;;;;;;;5054836;28;5008;-59
2023/04/09 01:44:11;;;;;;;;;;;;;;;;;;5052025;28;4999;-59
2023/04/09 01:46:37;;;;;;;;;;;;;;;;;;5081614;28;4460;-59
2023/04/09 01:49:03;;;;;;;;;;;;;;;;;;5081035;28;1135;-59
2023/04/09 01:51:28;;;;;;;;;;;;;;;;;;5055037;28;4995;-58
2023/04/09 01:53:54;;;;;;;;;;;;;;;;;;5062921;28;4616;-59
2023/04/09 01:56:20;;;;;;;;;;;;;;;;;;5052491;28;4634;-59
2023/04/09 01:58:45;;;;;;;;;;;;;;;;;;5052930;28;4798;-59
2023/04/09 02:01:28;;;;;;;;;;;;;;;;;;5084013;28;1184;-58
2023/04/09 02:03:55;;;;;;;;;;;;;;;;;;5080124;28;4365;-59
2023/04/09 02:06:40;;;;;;;;;;;;;;;;;;5049924;28;4959;-58
2023/04/09 02:09:06;;;;;;;;;;;;;;;;;;5079364;28;5068;-58
2023/04/09 02:11:31;;;;;;;;;;;;;;;;;;5083010;28;5091;-58
2023/04/09 02:13:57;;;;;;;;;;;;;;;;;;5051823;28;5091;-58
2023/04/09 02:16:22;;;;;;;;;;;;;;;;;;5053261;28;4706;-58
2023/04/09 02:18:51;;;;;;;;;;;;;;;;;;5048300;28;1091;-58
2023/04/09 02:21:17;;;;;;;;;;;;;;;;;;5048879;28;4600;-58
2023/04/09 02:23:42;;;;;;;;;;;;;;;;;;5048132;28;4447;-58
2023/04/09 02:26:08;;;;;;;;;;;;;;;;;;5049635;28;4775;-58
2023/04/09 02:28:33;;;;;;;;;;;;;;;;;;5049870;28;4646;-59
2023/04/09 02:30:58;;;;;;;;;;;;;;;;;;5055011;28;1159;-58
2023/04/09 02:33:24;;;;;;;;;;;;;;;;;;5052055;28;4480;-58
2023/04/09 02:35:49;;;;;;;;;;;;;;;;;;5054650;28;4637;-58
2023/04/09 02:38:14;;;;;;;;;;;;;;;;;;5047875;28;4872;-58
2023/04/09 02:40:40;;;;;;;;;;;;;;;;;;5048874;28;4635;-58
2023/04/09 02:43:05;;;;;;;;;;;;;;;;;;5061209;28;1360;-58
2023/04/09 02:45:30;;;;;;;;;;;;;;;;;;5056742;28;4554;-58
2023/04/09 02:47:56;;;;;;;;;;;;;;;;;;5053299;28;4996;-59
2023/04/09 02:50:21;;;;;;;;;;;;;;;;;;5057239;28;5156;-58
2023/04/09 02:52:46;;;;;;;;;;;;;;;;;;5054223;28;4491;-57
2023/04/09 02:55:12;;;;;;;;;;;;;;;;;;5051265;28;2419;-58
2023/04/09 02:57:37;;;;;;;;;;;;;;;;;;5056896;28;4584;-59
2023/04/09 03:00:03;;;;;;;;;;;;;;;;;;5057850;28;4498;-57
2023/04/09 03:02:28;;;;;;;;;;;;;;;;;;5059038;28;4461;-57
2023/04/09 03:04:53;;;;;;;;;;;;;;;;;;5059260;28;4556;-57
2023/04/09 03:07:18;;;;;;;;;;;;;;;;;;5065936;28;1981;-57
2023/04/09 03:09:44;;;;;;;;;;;;;;;;;;5054485;28;4578;-57
2023/04/09 03:12:09;;;;;;;;;;;;;;;;;;5051940;28;4786;-58
2023/04/09 03:14:34;;;;;;;;;;;;;;;;;;5051452;28;4441;-59
2023/04/09 03:16:59;;;;;;;;;;;;;;;;;;5051675;28;4471;-58
2023/04/09 03:19:25;;;;;;;;;;;;;;;;;;5050823;28;4899;-59
2023/04/09 03:21:51;;;;;;;;;;;;;;;;;;5060352;28;1690;-58
2023/04/09 03:24:16;;;;;;;;;;;;;;;;;;5049974;28;4788;-59
2023/04/09 03:26:41;;;;;;;;;;;;;;;;;;5075251;28;4554;-60
2023/04/09 03:29:07;;;;;;;;;;;;;;;;;;5059035;28;4528;-59
2023/04/09 03:31:32;;;;;;;;;;;;;;;;;;5056674;28;5063;-60
2023/04/09 03:33:57;;;;;;;;;;;;;;;;;;5052384;28;1062;-59
2023/04/09 03:36:23;;;;;;;;;;;;;;;;;;5054404;28;5033;-58
2023/04/09 03:38:48;;;;;;;;;;;;;;;;;;5054370;28;4591;-59
2023/04/09 03:41:13;;;;;;;;;;;;;;;;;;5054593;28;4455;-59
2023/04/09 03:43:38;;;;;;;;;;;;;;;;;;5055779;28;4861;-59
2023/04/09 03:46:13;;;;;;;;;;;;;;;;;;5062309;28;1971;-59
2023/04/09 03:48:38;;;;;;;;;;;;;;;;;;5051802;28;5005;-59
2023/04/09 03:51:03;;;;;;;;;;;;;;;;;;5055540;28;4511;-59
2023/04/09 03:53:29;;;;;;;;;;;;;;;;;;5060656;28;4494;-59
2023/04/09 03:55:54;;;;;;;;;;;;;;;;;;5060927;28;4408;-59
2023/04/09 03:58:19;;;;;;;;;;;;;;;;;;5053475;28;1211;-59
2023/04/09 04:00:45;;;;;;;;;;;;;;;;;;5058317;28;4349;-59
2023/04/09 04:03:10;;;;;;;;;;;;;;;;;;5086279;28;4684;-59
2023/04/09 04:05:36;;;;;;;;;;;;;;;;;;5055129;28;4470;-59
2023/04/09 04:08:01;;;;;;;;;;;;;;;;;;5056616;28;4616;-59
2023/04/09 04:10:26;;;;;;;;;;;;;;;;;;5058879;28;5082;-59
2023/04/09 04:12:51;;;;;;;;;;;;;;;;;;5048909;28;1258;-58
2023/04/09 04:15:18;;;;;;;;;;;;;;;;;;5050120;28;4893;-58
2023/04/09 04:17:44;;;;;;;;;;;;;;;;;;5049068;28;4431;-58
2023/04/09 04:20:09;;;;;;;;;;;;;;;;;;5051571;28;4921;-58
2023/04/09 04:22:34;;;;;;;;;;;;;;;;;;5048699;28;4719;-58
2023/04/09 04:25:00;;;;;;;;;;;;;;;;;;5046521;28;4753;-58
2023/04/09 04:27:25;;;;;;;;;;;;;;;;;;5054619;28;4671;-58
2023/04/09 04:29:51;;;;;;;;;;;;;;;;;;5050073;28;4438;-58
2023/04/09 04:32:16;;;;;;;;;;;;;;;;;;5054172;28;5102;-58
2023/04/09 04:34:41;;;;;;;;;;;;;;;;;;5054345;28;5472;-59
2023/04/09 04:37:06;;;;;;;;;;;;;;;;;;5053314;28;1099;-58
2023/04/09 04:39:32;;;;;;;;;;;;;;;;;;5079621;28;5435;-58
2023/04/09 04:41:58;;;;;;;;;;;;;;;;;;5054393;28;4649;-59
2023/04/09 04:44:23;;;;;;;;;;;;;;;;;;5055146;28;5081;-57
2023/04/09 04:46:48;;;;;;;;;;;;;;;;;;5057026;28;5000;-59
2023/04/09 04:49:13;;;;;;;;;;;;;;;;;;5053935;28;2023;-58
2023/04/09 04:51:39;;;;;;;;;;;;;;;;;;5054499;28;4407;-58
2023/04/09 04:54:04;;;;;;;;;;;;;;;;;;5058588;28;4632;-58
2023/04/09 04:56:29;;;;;;;;;;;;;;;;;;5060106;28;4936;-58
2023/04/09 04:58:55;;;;;;;;;;;;;;;;;;5057562;28;4566;-57
2023/04/09 05:01:20;;;;;;;;;;;;;;;;;;5058442;28;4984;-51
2023/04/09 05:03:45;;;;;;;;;;;;;;;;;;5062610;28;1165;-58
2023/04/09 05:06:10;;;;;;;;;;;;;;;;;;5061066;28;5033;-57
2023/04/09 05:08:36;;;;;;;;;;;;;;;;;;5059428;28;4432;-57
2023/04/09 05:11:01;;;;;;;;;;;;;;;;;;5049232;28;4525;-58
2023/04/09 05:13:26;;;;;;;;;;;;;;;;;;5052805;28;4629;-58
2023/04/09 05:15:52;;;;;;;;;;;;;;;;;;5049209;28;1148;-58
2023/04/09 05:18:17;;;;;;;;;;;;;;;;;;5053546;28;4463;-58
2023/04/09 05:20:42;;;;;;;;;;;;;;;;;;5083486;28;4967;-57
2023/04/09 05:23:11;;;;;;;;;;;;;;;;;;5052597;28;5011;-58
2023/04/09 05:25:36;;;;;;;;;;;;;;;;;;5048189;28;4696;-58
2023/04/09 05:28:01;;;;;;;;;;;;;;;;;;5053516;28;1096;-57
2023/04/09 05:30:27;;;;;;;;;;;;;;;;;;5051595;28;4526;-58
2023/04/09 05:32:52;;;;;;;;;;;;;;;;;;5047758;28;4626;-57
2023/04/09 05:35:17;;;;;;;;;;;;;;;;;;5050012;28;5107;-57
2023/04/09 05:37:43;;;;;;;;;;;;;;;;;;5051587;28;4692;-57
2023/04/09 05:40:08;;;;;;;;;;;;;;;;;;5048393;28;3257;-58
2023/04/09 05:42:33;;;;;;;;;;;;;;;;;;5042503;28;4527;-56
2023/04/09 05:44:59;;;;;;;;;;;;;;;;;;5045569;28;4677;-57
2023/04/09 05:47:24;;;;;;;;;;;;;;;;;;5054505;28;4857;-57
2023/04/09 05:49:49;;;;;;;;;;;;;;;;;;5044237;28;4787;-57
2023/04/09 05:52:15;;;;;;;;;;;;;;;;;;5056901;28;3482;-57
2023/04/09 05:54:40;;;;;;;;;;;;;;;;;;5052204;28;4536;-57
2023/04/09 05:57:06;;;;;;;;;;;;;;;;;;5054157;28;5001;-57
2023/04/09 05:59:31;;;;;;;;;;;;;;;;;;5053643;28;4473;-57
2023/04/09 06:01:56;;;;;;;;;;;;;;;;;;5052676;28;4592;-57
2023/04/09 06:04:21;;;;;;;;;;;;;;;;;;5049307;28;4947;-56
2023/04/09 06:06:47;;;;;;;;;;;;;;;;;;5057641;28;1910;-57
2023/04/09 06:09:12;;;;;;;;;;;;;;;;;;5047779;28;4958;-58
2023/04/09 06:11:37;;;;;;;;;;;;;;;;;;5045987;28;4710;-57
2023/04/09 06:14:03;;;;;;;;;;;;;;;;;;5088505;28;4641;-57
2023/04/09 06:16:28;;;;;;;;;;;;;;;;;;5062486;28;4998;-59
2023/04/09 06:18:55;;;;;;;;;;;;;;;;;;5044082;28;3028;-58
2023/04/09 06:21:20;;;;;;;;;;;;;;;;;;5050875;28;4587;-59
2023/04/09 06:23:46;;;;;;;;;;;;;;;;;;5047504;28;4547;-59
2023/04/09 06:26:11;;;;;;;;;;;;;;;;;;5037921;28;4988;-56
2023/04/09 06:28:36;;;;;;;;;;;;;;;;;;5038631;28;4669;-59
2023/04/09 06:31:02;;;;;;;;;;;;;;;;;;5047649;28;1191;-59
2023/04/09 06:33:27;;;;;;;;;;;;;;;;;;5046819;28;4631;-59
2023/04/09 06:35:52;;;;;;;;;;;;;;;;;;5051453;28;5040;-60
2023/04/09 06:38:17;;;;;;;;;;;;;;;;;;5050386;28;4541;-59
2023/04/09 06:40:43;;;;;;;;;;;;;;;;;;5052849;28;4698;-58
2023/04/09 06:43:08;;;;;;;;;;;;;;;;;;5056425;28;1190;-61
2023/04/09 06:45:34;;;;;;;;;;;;;;;;;;5049941;28;4433;-58
2023/04/09 06:47:59;;;;;;;;;;;;;;;;;;5043449;28;5124;-58
2023/04/09 06:50:25;;;;;;;;;;;;;;;;;;5056341;28;5197;-58
2023/04/09 06:52:50;;;;;;;;;;;;;;;;;;5047214;28;4591;-57
2023/04/09 06:55:15;;;;;;;;;;;;;;;;;;5046574;28;3429;-58
2023/04/09 06:57:41;;;;;;;;;;;;;;;;;;5046725;28;4693;-57
2023/04/09 07:00:07;;;;;;;;;;;;;;;;;;5045506;28;4508;-58
2023/04/09 07:02:32;;;;;;;;;;;;;;;;;;5054447;28;4693;-58
2023/04/09 07:04:57;;;;;;;;;;;;;;;;;;5052623;28;4514;-60
2023/04/09 07:07:22;;;;;;;;;;;;;;;;;;5051080;28;4648;-59
2023/04/09 07:09:48;;;;;;;;;;;;;;;;;;5047961;28;3342;-58
2023/04/09 07:12:13;;;;;;;;;;;;;;;;;;5057733;28;4701;-58
2023/04/09 07:14:39;;;;;;;;;;;;;;;;;;5051853;28;5057;-63
2023/04/09 07:17:04;;;;;;;;;;;;;;;;;;5055865;28;4694;-65
2023/04/09 07:19:29;;;;;;;;;;;;;;;;;;5049555;28;4892;-62
2023/04/09 07:21:55;;;;;;;;;;;;;;;;;;5041656;28;3349;-65
2023/04/09 07:24:20;;;;;;;;;;;;;;;;;;5045725;28;4928;-64
2023/04/09 07:26:45;;;;;;;;;;;;;;;;;;5048972;28;4597;-61
2023/04/09 07:29:10;;;;;;;;;;;;;;;;;;5051468;28;4514;-60
2023/04/09 07:31:36;;;;;;;;;;;;;;;;;;5042099;28;4767;-56
2023/04/09 07:34:01;;;;;;;;;;;;;;;;;;5050859;28;3357;-59
2023/04/09 07:36:26;;;;;;;;;;;;;;;;;;5038049;28;4503;-59
2023/04/09 07:38:52;;;;;;;;;;;;;;;;;;5045220;28;4675;-61
2023/04/09 07:41:17;;;;;;;;;;;;;;;;;;5048739;28;4667;-63
2023/04/09 07:43:43;;;;;;;;;;;;;;;;;;5050173;28;4508;-63
2023/04/09 07:46:08;;;;;;;;;;;;;;;;;;5056570;28;1938;-66
2023/04/09 07:48:33;;;;;;;;;;;;;;;;;;5076497;28;4993;-64
2023/04/09 07:50:59;;;;;;;;;;;;;;;;;;5045627;28;5056;-60
2023/04/09 07:53:24;;;;;;;;;;;;;;;;;;5044217;28;5037;-61
2023/04/09 07:55:50;;;;;;;;;;;;;;;;;;5041001;28;5156;-62
2023/04/09 07:58:15;;;;;;;;;;;;;;;;;;5047956;28;3363;-59
2023/04/09 08:00:40;;;;;;;;;;;;;;;;;;5039022;28;4632;-64
2023/04/09 08:03:06;;;;;;;;;;;;;;;;;;5045146;28;4514;-63
2023/04/09 08:05:31;;;;;;;;;;;;;;;;;;5039584;28;5132;-63
2023/04/09 08:07:56;;;;;;;;;;;;;;;;;;5040696;28;4519;-59
2023/04/09 08:10:22;;;;;;;;;;;;;;;;;;5044609;28;4477;-58
2023/04/09 08:12:47;;;;;;;;;;;;;;;;;;5044293;28;3335;-63
2023/04/09 08:15:12;;;;;;;;;;;;;;;;;;5040686;28;4491;-54
2023/04/09 08:17:38;;;;;;;;;;;;;;;;;;5038693;28;4507;-54
2023/04/09 08:20:03;;;;;;;;;;;;;;;;;;5041968;28;4524;-54
2023/04/09 08:22:28;;;;;;;;;;;;;;;;;;5041919;28;5077;-53
2023/04/09 08:24:55;;;;;;;;;;;;;;;;;;5074132;28;4835;-54
2023/04/09 08:27:20;;;;;;;;;;;;;;;;;;5048032;28;5068;-54
2023/04/09 08:29:46;;;;;;;;;;;;;;;;;;5047571;28;5154;-53
2023/04/09 08:32:11;;;;;;;;;;;;;;;;;;5041317;28;4978;-54
2023/04/09 08:34:36;;;;;;;;;;;;;;;;;;5045737;28;4511;-57
2023/04/09 08:37:02;;;;;;;;;;;;;;;;;;5049147;28;1174;-57
2023/04/09 08:39:27;;;;;;;;;;;;;;;;;;5048713;28;4439;-58
2023/04/09 08:41:53;;;;;;;;;;;;;;;;;;5042056;28;4471;-57
2023/04/09 08:44:18;;;;;;;;;;;;;;;;;;5073702;28;5129;-55
2023/04/09 08:46:44;;;;;;;;;;;;;;;;;;5057886;28;5179;-56
2023/04/09 08:49:12;;;;;;;;;;;;;;;;;;5047505;28;1190;-56
2023/04/09 08:51:38;;;;;;;;;;;;;;;;;;5045890;28;4615;-57
2023/04/09 08:54:03;;;;;;;;;;;;;;;;;;5047555;28;4653;-58
2023/04/09 08:56:28;;;;;;;;;;;;;;;;;;5048688;28;4451;-54
2023/04/09 08:58:54;;;;;;;;;;;;;;;;;;5044565;28;4689;-56
2023/04/09 09:01:23;;;;;;;;;;;;;;;;;;5042558;28;1343;-56
2023/04/09 09:03:55;;;;;;;;;;;;;;;;;;5048680;28;4993;-57
2023/04/09 09:06:21;;;;;;;;;;;;;;;;;;5047962;28;4574;-57
2023/04/09 09:08:49;;;;;;;;;;;;;;;;;;5043924;28;4543;-56
2023/04/09 09:11:24;;;;;;;;;;;;;;;;;;5057050;28;4653;-56
2023/04/09 09:13:55;;;;;;;;;;;;;;;;;;5043446;28;4628;-56
2023/04/09 09:16:21;;;;;;;;;;;;;;;;;;5042238;28;4685;-55
2023/04/09 09:18:47;;;;;;;;;;;;;;;;;;5046095;28;1142;-55
2023/04/09 09:21:16;;;;;;;;;;;;;;;;;;5047083;28;4501;-52
2023/04/09 09:23:41;;;;;;;;;;;;;;;;;;5038616;28;4516;-52
2023/04/09 09:26:10;;;;;;;;;;;;;;;;;;5039648;28;5059;-55
2023/04/09 09:28:35;;;;;;;;;;;;;;;;;;5043531;28;4519;-57
2023/04/09 09:31:06;;;;;;;;;;;;;;;;;;5047172;28;3316;-58
2023/04/09 09:33:32;;;;;;;;;;;;;;;;;;5043105;28;4778;-58
2023/04/09 09:35:57;;;;;;;;;;;;;;;;;;5046329;28;5111;-57
2023/04/09 09:38:22;;;;;;;;;;;;;;;;;;5042572;28;4751;-55
2023/04/09 09:40:48;;;;;;;;;;;;;;;;;;5041404;28;4483;-57
2023/04/09 09:43:13;;;;;;;;;;;;;;;;;;5036976;28;3443;-57
2023/04/09 09:45:39;;;;;;;;;;;;;;;;;;5052410;28;5042;-56
2023/04/09 09:48:04;;;;;;;;;;;;;;;;;;5042230;28;4534;-57
2023/04/09 09:50:30;;;;;;;;;;;;;;;;;;5046447;28;4514;-57
2023/04/09 09:53:03;;;;;;;;;;;;;;;;;;5039810;28;4773;-57
2023/04/09 09:55:29;;;;;;;;;;;;;;;;;;5037341;28;5112;-57
2023/04/09 09:57:55;;;;;;;;;;;;;;;;;;5040668;28;3331;-57
2023/04/09 10:00:24;;;;;;;;;;;;;;;;;;5040915;28;4626;-57
2023/04/09 10:03:01;;;;;;;;;;;;;;;;;;5041302;28;5262;-58
2023/04/09 10:05:26;;;;;;;;;;;;;;;;;;5080032;28;4635;-56
2023/04/09 10:07:53;;;;;;;;;;;;;;;;;;5040830;28;4524;-57
2023/04/09 10:10:18;;;;;;;;;;;;;;;;;;5074876;28;3304;-55
2023/04/09 10:12:44;;;;;;;;;;;;;;;;;;5075019;28;4726;-57
2023/04/09 10:15:09;;;;;;;;;;;;;;;;;;5044272;28;4645;-57
2023/04/09 10:17:35;;;;;;;;;;;;;;;;;;5030360;28;4605;-55
2023/04/09 10:20:04;;;;;;;;;;;;;;;;;;5046758;28;4434;-55
2023/04/09 10:22:30;;;;;;;;;;;;;;;;;;5049471;28;5133;-57
2023/04/09 10:24:56;;;;;;;;;;;;;;;;;;5046775;28;4817;-56
2023/04/09 10:27:22;;;;;;;;;;;;;;;;;;5043672;28;4506;-57
2023/04/09 10:29:47;;;;;;;;;;;;;;;;;;5044735;28;4477;-58
2023/04/09 10:32:25;;;;;;;;;;;;;;;;;;5045821;28;5192;-57
2023/04/09 10:34:50;;;;;;;;;;;;;;;;;;5075571;28;5192;-57
2023/04/09 10:37:20;;;;;;;;;;;;;;;;;;5044375;28;3340;-55
2023/04/09 10:39:46;;;;;;;;;;;;;;;;;;5044778;28;4974;-56
2023/04/09 10:42:16;;;;;;;;;;;;;;;;;;5041387;28;4639;-56
2023/04/09 10:44:42;;;;;;;;;;;;;;;;;;5043695;28;4496;-58
2023/04/09 10:47:08;;;;;;;;;;;;;;;;;;5044622;28;4516;-57
2023/04/09 10:49:39;;;;;;;;;;;;;;;;;;5047167;28;5036;-57
2023/04/09 10:52:09;;;;;;;;;;;;;;;;;;5043198;28;3339;-57
2023/04/09 10:54:45;;;;;;;;;;;;;;;;;;5043801;28;4618;-58
2023/04/09 10:57:10;;;;;;;;;;;;;;;;;;5042720;28;4616;-57
2023/04/09 10:59:36;;;;;;;;;;;;;;;;;;5041500;28;4993;-56
2023/04/09 11:02:01;;;;;;;;;;;;;;;;;;5041738;28;4493;-57
2023/04/09 11:04:31;;;;;;;;;;;;;;;;;;5044041;28;4757;-56
2023/04/09 11:06:57;;;;;;;;;;;;;;;;;;5081327;28;3286;-57
2023/04/09 11:09:22;;;;;;;;;;;;;;;;;;5068316;28;4475;-57
2023/04/09 11:11:51;;;;;;;;;;;;;;;;;;5050544;28;4456;-58
2023/04/09 11:14:19;;;;;;;;;;;;;;;;;;5052970;28;5688;-58
2023/04/09 11:16:46;;;;;;;;;;;;;;;;;;5042522;28;4590;-55
2023/04/09 11:19:11;;;;;;;;;;;;;;;;;;5052220;28;3546;-57
2023/04/09 11:21:36;;;;;;;;;;;;;;;;;;5044811;28;5016;-57
2023/04/09 11:24:02;;;;;;;;;;;;;;;;;;5051919;28;4424;-61
2023/04/09 11:26:36;;;;;;;;;;;;;;;;;;5051574;28;5042;-59
2023/04/09 11:29:06;;;;;;;;;;;;;;;;;;5058725;28;4697;-57
2023/04/09 11:31:31;;;;;;;;;;;;;;;;;;5047897;28;4732;-58
2023/04/09 11:33:56;;;;;;;;;;;;;;;;;;5043514;28;3612;-58
2023/04/09 11:36:22;;;;;;;;;;;;;;;;;;5049853;28;4669;-58
2023/04/09 11:38:48;;;;;;;;;;;;;;;;;;5056383;28;4683;-58
2023/04/09 11:41:13;;;;;;;;;;;;;;;;;;5053519;28;4723;-59
2023/04/09 11:43:38;;;;;;;;;;;;;;;;;;5042490;28;4561;-56
2023/04/09 11:46:04;;;;;;;;;;;;;;;;;;5057521;28;3277;-56
2023/04/09 11:48:30;;;;;;;;;;;;;;;;;;5048511;28;5015;-56
2023/04/09 11:50:55;;;;;;;;;;;;;;;;;;5050470;28;4652;-57
2023/04/09 11:53:21;;;;;;;;;;;;;;;;;;5048176;28;4708;-58
2023/04/09 11:55:47;;;;;;;;;;;;;;;;;;5054323;28;4495;-60
2023/04/09 11:58:12;;;;;;;;;;;;;;;;;;5055772;28;3164;-57
2023/04/09 12:00:39;;;;;;;;;;;;;;;;;;5048197;28;4666;-60
2023/04/09 12:03:05;;;;;;;;;;;;;;;;;;5047333;28;4482;-62
2023/04/09 12:05:31;;;;;;;;;;;;;;;;;;5045258;28;5878;-61
2023/04/09 12:08:06;;;;;;;;;;;;;;;;;;5054975;28;5097;-59
2023/04/09 12:10:32;;;;;;;;;;;;;;;;;;5052218;28;4685;-59
2023/04/09 12:13:02;;;;;;;;;;;;;;;;;;5045956;28;979;-59
2023/04/09 12:15:29;;;;;;;;;;;;;;;;;;5085041;28;5075;-59
2023/04/09 12:17:56;;;;;;;;;;;;;;;;;;5046772;28;5156;-59
2023/04/09 12:20:31;;;;;;;;;;;;;;;;;;5046518;28;4969;-59
2023/04/09 12:22:56;;;;;;;;;;;;;;;;;;5053617;28;5082;-59
2023/04/09 12:25:22;;;;;;;;;;;;;;;;;;5052001;28;4744;-60
2023/04/09 12:27:47;;;;;;;;;;;;;;;;;;5059299;28;1981;-59
2023/04/09 12:30:12;;;;;;;;;;;;;;;;;;5089244;28;4582;-60
2023/04/09 12:32:37;;;;;;;;;;;;;;;;;;5052237;28;4614;-60
2023/04/09 12:35:03;;;;;;;;;;;;;;;;;;5049012;28;4547;-59
2023/04/09 12:37:28;;;;;;;;;;;;;;;;;;5052171;28;5538;-60
2023/04/09 12:39:53;;;;;;;;;;;;;;;;;;5082839;28;1155;-60
2023/04/09 12:42:19;;;;;;;;;;;;;;;;;;5052221;28;4935;-60
2023/04/09 12:44:44;;;;;;;;;;;;;;;;;;5051226;28;4488;-60
2023/04/09 12:47:09;;;;;;;;;;;;;;;;;;5053968;28;4483;-59
2023/04/09 12:49:35;;;;;;;;;;;;;;;;;;5057557;28;4638;-59
2023/04/09 12:52:00;;;;;;;;;;;;;;;;;;5056052;28;1152;-59
2023/04/09 12:54:25;;;;;;;;;;;;;;;;;;5058843;28;4621;-59
2023/04/09 12:56:51;;;;;;;;;;;;;;;;;;5051276;28;5088;-60
2023/04/09 12:59:16;;;;;;;;;;;;;;;;;;5058600;28;4601;-59
2023/04/09 13:01:41;;;;;;;;;;;;;;;;;;5056390;28;4692;-60
2023/04/09 13:04:06;;;;;;;;;;;;;;;;;;5055475;28;1097;-58
2023/04/09 13:06:31;;;;;;;;;;;;;;;;;;5055617;28;4648;-58
2023/04/09 13:08:57;;;;;;;;;;;;;;;;;;5060263;28;4390;-58
2023/04/09 13:11:22;;;;;;;;;;;;;;;;;;5042094;28;5148;-57
2023/04/09 13:13:47;;;;;;;;;;;;;;;;;;5060795;28;5083;-58
2023/04/09 13:16:12;;;;;;;;;;;;;;;;;;5051340;28;1388;-59
2023/04/09 13:18:38;;;;;;;;;;;;;;;;;;5063976;28;4559;-58
2023/04/09 13:21:03;;;;;;;;;;;;;;;;;;5054325;28;4517;-58
2023/04/09 13:23:28;;;;;;;;;;;;;;;;;;5055696;28;4859;-59
2023/04/09 13:25:54;;;;;;;;;;;;;;;;;;5055070;28;4903;-58
2023/04/09 13:28:19;;;;;;;;;;;;;;;;;;5057377;28;1598;-59
2023/04/09 13:30:44;;;;;;;;;;;;;;;;;;5050461;28;5913;-59
2023/04/09 13:33:10;;;;;;;;;;;;;;;;;;5084260;28;4450;-59
2023/04/09 13:35:35;;;;;;;;;;;;;;;;;;5055956;28;4430;-59
2023/04/09 13:38:00;;;;;;;;;;;;;;;;;;5059447;28;4758;-58
2023/04/09 13:40:26;;;;;;;;;;;;;;;;;;5047787;28;4427;-58
2023/04/09 13:42:51;;;;;;;;;;;;;;;;;;5053433;28;1693;-59
2023/04/09 13:45:17;;;;;;;;;;;;;;;;;;5047498;28;5183;-58
2023/04/09 13:47:42;;;;;;;;;;;;;;;;;;5049500;28;4499;-60
2023/04/09 13:50:09;;;;;;;;;;;;;;;;;;5048002;28;4470;-60
2023/04/09 13:52:34;;;;;;;;;;;;;;;;;;5049878;28;4659;-58
2023/04/09 13:55:00;;;;;;;;;;;;;;;;;;5053103;28;1352;-59
2023/04/09 13:57:26;;;;;;;;;;;;;;;;;;5051701;28;4593;-59
2023/04/09 13:59:51;;;;;;;;;;;;;;;;;;5051861;28;4809;-58
2023/04/09 14:02:16;;;;;;;;;;;;;;;;;;5049626;28;4606;-59
2023/04/09 14:04:42;;;;;;;;;;;;;;;;;;5047216;28;4603;-58
2023/04/09 14:07:07;;;;;;;;;;;;;;;;;;5051554;28;1918;-58
2023/04/09 14:09:32;;;;;;;;;;;;;;;;;;5047463;28;4394;-59
2023/04/09 14:11:57;;;;;;;;;;;;;;;;;;5055129;28;4520;-59
2023/04/09 14:14:23;;;;;;;;;;;;;;;;;;5058300;28;4566;-59
2023/04/09 14:16:49;;;;;;;;;;;;;;;;;;5061640;28;4474;-59
2023/04/09 14:19:14;;;;;;;;;;;;;;;;;;5058727;28;1121;-59
2023/04/09 14:21:40;;;;;;;;;;;;;;;;;;5056024;28;4405;-59
2023/04/09 14:24:05;;;;;;;;;;;;;;;;;;5087387;28;4693;-58
2023/04/09 14:26:30;;;;;;;;;;;;;;;;;;5055763;28;5109;-59
2023/04/09 14:28:56;;;;;;;;;;;;;;;;;;5057876;28;4659;-58
2023/04/09 14:31:21;;;;;;;;;;;;;;;;;;5059635;28;4981;-59
2023/04/09 14:33:47;;;;;;;;;;;;;;;;;;5057926;28;1355;-59
2023/04/09 14:36:12;;;;;;;;;;;;;;;;;;5057421;28;4396;-58
2023/04/09 14:38:37;;;;;;;;;;;;;;;;;;5055573;28;5146;-59
2023/04/09 14:41:03;;;;;;;;;;;;;;;;;;5046765;28;5206;-59
2023/04/09 14:43:28;;;;;;;;;;;;;;;;;;5047476;28;5187;-58
2023/04/09 14:45:53;;;;;;;;;;;;;;;;;;5049102;28;1979;-59
2023/04/09 14:48:19;;;;;;;;;;;;;;;;;;5042074;28;5190;-57
2023/04/09 14:50:44;;;;;;;;;;;;;;;;;;5048192;28;4711;-58
2023/04/09 14:53:09;;;;;;;;;;;;;;;;;;5047879;28;5162;-58
2023/04/09 14:55:35;;;;;;;;;;;;;;;;;;5052577;28;4687;-58
2023/04/09 14:58:03;;;;;;;;;;;;;;;;;;5049071;28;1156;-57
2023/04/09 15:00:28;;;;;;;;;;;;;;;;;;5052151;28;4417;-59
2023/04/09 15:02:53;;;;;;;;;;;;;;;;;;5053662;28;4953;-59
2023/04/09 15:05:19;;;;;;;;;;;;;;;;;;5049919;28;4480;-59
2023/04/09 15:07:44;;;;;;;;;;;;;;;;;;5051448;28;4540;-59
2023/04/09 15:10:10;;;;;;;;;;;;;;;;;;5051593;28;1336;-59
2023/04/09 15:12:35;;;;;;;;;;;;;;;;;;5056362;28;5193;-58
2023/04/09 15:15:03;;;;;;;;;;;;;;;;;;5057257;28;4468;-59
2023/04/09 15:17:29;;;;;;;;;;;;;;;;;;5060690;28;4611;-57
2023/04/09 15:19:54;;;;;;;;;;;;;;;;;;5061644;28;4893;-60
2023/04/09 15:22:20;;;;;;;;;;;;;;;;;;5059884;28;1144;-59
2023/04/09 15:24:45;;;;;;;;;;;;;;;;;;5054717;28;4732;-59
2023/04/09 15:27:10;;;;;;;;;;;;;;;;;;5057186;28;4933;-58
2023/04/09 15:29:36;;;;;;;;;;;;;;;;;;5061376;28;4623;-57
2023/04/09 15:32:01;;;;;;;;;;;;;;;;;;5051990;28;4686;-58
2023/04/09 15:34:26;;;;;;;;;;;;;;;;;;5060560;28;4985;-59
2023/04/09 15:36:52;;;;;;;;;;;;;;;;;;5060489;28;1276;-60
2023/04/09 15:39:17;;;;;;;;;;;;;;;;;;5061645;28;5107;-59
2023/04/09 15:41:42;;;;;;;;;;;;;;;;;;5058025;28;4908;-57
2023/04/09 15:44:08;;;;;;;;;;;;;;;;;;5064375;28;4514;-59
2023/04/09 15:46:33;;;;;;;;;;;;;;;;;;5050948;28;5182;-59
2023/04/09 15:48:58;;;;;;;;;;;;;;;;;;5055896;28;1112;-58
2023/04/09 15:51:24;;;;;;;;;;;;;;;;;;5048767;28;4720;-59
2023/04/09 15:53:49;;;;;;;;;;;;;;;;;;5050963;28;4495;-58
2023/04/09 15:56:14;;;;;;;;;;;;;;;;;;5056731;28;4983;-58
2023/04/09 15:58:40;;;;;;;;;;;;;;;;;;5048777;28;5002;-58
2023/04/09 16:01:06;;;;;;;;;;;;;;;;;;5050396;28;1209;-58
2023/04/09 16:03:35;;;;;;;;;;;;;;;;;;5049615;28;4438;-58
2023/04/09 16:06:06;;;;;;;;;;;;;;;;;;5049493;28;4452;-58
2023/04/09 16:08:31;;;;;;;;;;;;;;;;;;5050662;28;5179;-57
2023/04/09 16:10:56;;;;;;;;;;;;;;;;;;5050150;28;4439;-58
2023/04/09 16:13:21;;;;;;;;;;;;;;;;;;5055232;28;4601;-57
2023/04/09 16:15:48;;;;;;;;;;;;;;;;;;5054092;28;1198;-59
2023/04/09 16:18:13;;;;;;;;;;;;;;;;;;5053183;28;5047;-58
2023/04/09 16:20:38;;;;;;;;;;;;;;;;;;5044956;28;4865;-57
2023/04/09 16:23:04;;;;;;;;;;;;;;;;;;5051731;28;4488;-59
2023/04/09 16:25:29;;;;;;;;;;;;;;;;;;5047862;28;5224;-60
2023/04/09 16:27:54;;;;;;;;;;;;;;;;;;5053473;28;3157;-59
2023/04/09 16:30:20;;;;;;;;;;;;;;;;;;5049184;28;4465;-60
2023/04/09 16:32:45;;;;;;;;;;;;;;;;;;5048164;28;4493;-59
2023/04/09 16:35:11;;;;;;;;;;;;;;;;;;5049605;28;5019;-58
2023/04/09 16:37:37;;;;;;;;;;;;;;;;;;5054087;28;4564;-59
2023/04/09 16:40:03;;;;;;;;;;;;;;;;;;5056097;28;1151;-59
2023/04/09 16:42:29;;;;;;;;;;;;;;;;;;5055024;28;4619;-60
2023/04/09 16:44:54;;;;;;;;;;;;;;;;;;5060201;28;5008;-59
2023/04/09 16:47:20;;;;;;;;;;;;;;;;;;5054659;28;4489;-60
2023/04/09 16:49:45;;;;;;;;;;;;;;;;;;5058039;28;4664;-61
2023/04/09 16:52:10;;;;;;;;;;;;;;;;;;5039410;28;4257;-62
2023/04/09 16:54:35;;;;;;;;;;;;;;;;;;5042979;28;4443;-68